• Join FlightAware (Why Join?)
  • Login
  • US Flag GB Flag 
07:22 EST


 

Airport Tracker/Info


-or-


 

Live Flight TrackerFlight Track Log ✈ N321FU ✈ 11-Nov-2013 ✈ KFXE - KDAB

Flight Track Log - Related Links

Times and Time Zones

All times are in EST time to prevent confusion due to time zone crossing. See the N321FU flight status page for this flight to view local times or setup timezone preferences in your user account.

Time Position Orientation Groundspeed Altitude Reporting Facility
EST Latitude Longitude Course Direction KTS MPH feet Rate Location/Type
14:21 27.0350 -80.4361 344° North 177 204 5,400  Level Miami Center
14:22 27.0847 -80.4519 344° North 171 197 5,600 60 Climbing Miami Center
14:23 27.1303 -80.4672 343° North 165 190 5,600  Level Miami Center
14:24 27.1758 -80.4803 346° North 165 190 5,600  Level Miami Center
14:25 27.2172 -80.4933 344° North 165 190 5,600  Level Miami Center
14:26 27.2689 -80.5114 343° North 165 190 5,600 -60 Level Miami Center
14:27 27.3144 -80.5244 346° North 165 190 5,500  Descending Miami Center
14:28 27.3622 -80.5422 342° North 165 190 5,600  Climbing Miami Center
14:29 27.4036 -80.5553 344° North 165 190 5,500 -60 Descending Miami Center
14:30 27.4492 -80.5683 346° North 165 190 5,500  Level Miami Center
14:31 27.5031 -80.5794 350° North 165 190 5,500  Level Miami Center
14:32 27.5508 -80.5881 351° North 165 190 5,500  Level Miami Center
14:33 27.5986 -80.5967 351° North 165 190 5,500  Level Miami Center
14:34 27.6444 -80.5983 358° North 170 196 5,500  Level Miami Center
14:35 27.6967 -80.6047 354° North 170 196 5,500  Level Miami Center
14:36 27.7444 -80.6131 351° North 175 201 5,500  Level Miami Center
14:37 27.7944 -80.6194 354° North 175 201 5,500  Level Miami Center
14:38 27.8381 -80.6233 355° North 180 207 5,500  Level Miami Center
14:39 27.8858 -80.6367 346° North 175 201 5,500  Level Miami Center
14:40 27.9500 -80.6500 350° North 181 208 5,500  Level Orlando TRACON
14:41 28.0000 -80.6667 344° North 198 228 5,500  Level Orlando TRACON
14:42 28.0500 -80.6667 360° North 175 201 5,500  Level Orlando TRACON
14:43 28.0833 -80.6667 360° North 173 199 5,500  Level Orlando TRACON
14:44 28.1333 -80.6833 344° North 176 203 5,500  Level Orlando TRACON
14:45 28.1667 -80.7000 336° Northwest 180 207 5,500  Level Orlando TRACON
14:46 28.2167 -80.7333 330° Northwest 180 207 5,500  Level Orlando TRACON
14:47 28.2667 -80.7500 344° North 180 207 5,500  Level Orlando TRACON
14:48 28.3167 -80.7667 344° North 179 206 5,500  Level Orlando TRACON
14:49 28.3667 -80.8000 330° Northwest 179 206 5,500  Level Orlando TRACON
14:50 28.4000 -80.8167 336° Northwest 179 206 5,500  Level Orlando TRACON
14:51 28.4500 -80.8333 344° North 177 204 5,500  Level Orlando TRACON
14:52 28.5000 -80.8500 344° North 178 205 5,500  Level Orlando TRACON
14:53 28.5500 -80.8667 344° North 178 205 5,500  Level Orlando TRACON
14:54 28.6000 -80.9000 330° Northwest 178 205 5,500 -240 Level Orlando TRACON
14:55 28.6500 -80.9167 344° North 192 221 5,000 -540 Descending Orlando TRACON
14:56 28.7000 -80.9333 344° North 197 227 4,500 -480 Descending Orlando TRACON
14:57 28.7500 -80.9667 330° Northwest 198 228 4,100 -420 Descending Orlando TRACON
14:59 28.8514 -80.9514 319° Northwest  Level FlightAware Approximate
15:06 29.1667 -81.0500 348° North  Level FlightAware Approximate
15:07 29.1799 -81.0581 348° North  Level Estimated
15:08 29.1799 -81.0581 348° North  Level Estimated
15:09 29.1799 -81.0581 348° North  Level Estimated
15:10 29.1799 -81.0581 348° North  Level Estimated
15:11 29.1799 -81.0581 348° North  Level Estimated
15:12 29.1799 -81.0581 348° North  Level Estimated
15:13 29.1799 -81.0581 348° North  Level Estimated
15:14 29.1799 -81.0581 348° North  Level Estimated
15:15 29.1799 -81.0581 348° North  Level Estimated
15:16 29.1799 -81.0581 348° North  Level Estimated
15:17 29.1799 -81.0581 348° North  Level Estimated
15:18 29.1799 -81.0581 348° North  Level Estimated
15:19 29.1799 -81.0581 348° North  Level Estimated
15:20 29.1799 -81.0581 348° North  Level Estimated
15:21 29.1799 -81.0581 348° North  Level Estimated
15:22 29.1799 -81.0581 348° North  Level Estimated
15:23 29.1799 -81.0581 348° North  Level Estimated
15:24 29.1799 -81.0581 348° North  Level Estimated
15:25 29.1799 -81.0581 348° North  Level Estimated
15:26 29.1799 -81.0581 348° North  Level Estimated
15:27 29.1799 -81.0581 348° North  Level Estimated